New Lisbon, Indiana
Current Conditions -  °F | °C
As of 3:53 PM on Saturday 22 Nov 2014 (Local Time) from KMIE Reporting Station
Overcast Overcast  
Wind Chill: 53°   Ceiling: 5000
Heat Index: 53°   Visibility: 10mi
Dew Point: 42°   Wind: 16mph
Humidity: 66%   Direction: 200°SSW
Pressure: 30.02"   Gusts: 23mph
Location:  39.86°N, 85.26°W
Report Text: KMIE 222053Z 20014G20KT 10SM SCT043 BKN050 OVC080 12/06 A3002 RMK AO2 SLP166 60001 T01170056 56021
Loading
Personal Weather Stations






























Interactive Weather Map New forecast layout! Learn more

10-Day Weather Forecast

Advertisements
Track Severe Weather on mobile